Estación Meteorológica Peña el Pijo (Robertgarden) [ 06/24/18 10:35:42 CEST ]

Fecha Hora Presion(HPa) Temp (°C) Humedad % Rocio (°C) Viento ( m/s) Direccion Lluvia 1Hora(mm) Lluvia 24H(mm) LLuvia Total(mm)
2018-Feb-24 01:01:56 994.400 -4.4 63 -10.4         83.39
2018-Feb-24 02:04:10 994.300 -4.4 66 -9.8         83.39
2018-Feb-24 03:01:50 994.500 -5.1 69 -9.9         83.39
2018-Feb-24 04:01:40 994.200 -5.0 71 -9.4         83.39
2018-Feb-24 05:01:42 994.100 -5.1 72 -9.4         83.39
2018-Feb-24 06:01:46 993.800 -5.1 73 -9.2         83.39
2018-Feb-24 07:01:57 994.100 -5.7 74 -9.6         83.39
2018-Feb-24 08:01:47 994.400 -6.4 74 -10.3         83.39
2018-Feb-24 09:01:42 994.600 -3.6 77 -7.1         83.39
2018-Feb-24 10:01:39 994.700 3.4 62 -3.2         83.39
2018-Feb-24 11:01:29 994.700 9.0 41 -3.6 0.9 NNE     83.39
2018-Feb-24 12:01:39 994.600 11.3 32 -4.9         83.39
2018-Feb-24 13:01:33 994.700 11.0 30 -5.9         83.39
2018-Feb-24 14:01:26 994.700 12.3 28 -5.8         83.39
2018-Feb-24 15:01:41 994.200 13.2 26 -6.1         83.39
2018-Feb-24 16:01:51 994.000 13.5 26 -5.8         83.39
2018-Feb-24 17:01:39 994.300 12.1 28 -6.0         83.39
2018-Feb-24 18:01:47 994.900 9.3 31 -7.0         83.39
2018-Feb-24 19:01:47 995.800 6.6 46 -4.3         83.39
2018-Feb-24 20:01:56 996.600 4.3 53 -4.5         83.39
2018-Feb-24 21:01:42 997.300 2.7 56 -5.2         83.39
2018-Feb-24 22:01:58 997.800 0.9 61 -5.8         83.39
2018-Feb-24 23:01:46 998.300 0.1 65 -5.7         83.39

Temperatura Máxima:13°    Temperatura Mínima:-6°
Presión Máxima:998.300 Hpa    Presión Mínima:993.800 Hpa


Volver